sensor_id;sensor_type;location;lat;lon;timestamp;pressure;altitude;pressure_sealevel;temperature;humidity
40872;BME280;26591;43.264;26.940;2023-05-03T00:00:08;99655.56;;;10.59;86.86
40872;BME280;26591;43.264;26.940;2023-05-03T00:02:35;99657.81;;;10.53;87.05
40872;BME280;26591;43.264;26.940;2023-05-03T00:05:05;99646.44;;;10.15;88.75
40872;BME280;26591;43.264;26.940;2023-05-03T00:07:33;99637.88;;;10.31;88.83
40872;BME280;26591;43.264;26.940;2023-05-03T00:09:59;99643.44;;;10.38;88.64
40872;BME280;26591;43.264;26.940;2023-05-03T00:12:25;99639.66;;;10.13;89.37
40872;BME280;26591;43.264;26.940;2023-05-03T00:14:50;99636.38;;;10.01;90.13
40872;BME280;26591;43.264;26.940;2023-05-03T00:17:16;99640.50;;;10.41;89.13
40872;BME280;26591;43.264;26.940;2023-05-03T00:19:41;99636.25;;;10.84;87.95
40872;BME280;26591;43.264;26.940;2023-05-03T00:22:10;99630.31;;;11.09;86.41
40872;BME280;26591;43.264;26.940;2023-05-03T00:24:36;99637.00;;;11.21;85.36
40872;BME280;26591;43.264;26.940;2023-05-03T00:27:03;99637.78;;;11.13;84.28
40872;BME280;26591;43.264;26.940;2023-05-03T00:29:28;99643.72;;;10.89;84.70
40872;BME280;26591;43.264;26.940;2023-05-03T00:31:54;99641.63;;;10.57;86.49
40872;BME280;26591;43.264;26.940;2023-05-03T00:34:19;99638.63;;;10.23;88.97
40872;BME280;26591;43.264;26.940;2023-05-03T00:36:45;99627.34;;;10.21;89.81
40872;BME280;26591;43.264;26.940;2023-05-03T00:39:10;99634.63;;;9.91;90.65
40872;BME280;26591;43.264;26.940;2023-05-03T00:41:37;99629.88;;;9.95;91.04
40872;BME280;26591;43.264;26.940;2023-05-03T00:44:03;99627.53;;;9.92;91.56
40872;BME280;26591;43.264;26.940;2023-05-03T00:46:28;99633.19;;;9.97;91.48
40872;BME280;26591;43.264;26.940;2023-05-03T00:48:54;99630.44;;;9.99;91.07
40872;BME280;26591;43.264;26.940;2023-05-03T00:51:21;99639.06;;;10.19;91.01
40872;BME280;26591;43.264;26.940;2023-05-03T00:53:46;99635.72;;;10.45;89.62
40872;BME280;26591;43.264;26.940;2023-05-03T00:56:16;99631.56;;;10.42;88.49
40872;BME280;26591;43.264;26.940;2023-05-03T00:58:44;99638.13;;;10.38;88.92
40872;BME280;26591;43.264;26.940;2023-05-03T01:01:09;99627.25;;;10.59;87.96
40872;BME280;26591;43.264;26.940;2023-05-03T01:03:36;99634.66;;;10.10;89.10
40872;BME280;26591;43.264;26.940;2023-05-03T01:06:38;99633.81;;;9.91;90.25
40872;BME280;26591;43.264;26.940;2023-05-03T01:14:39;99623.34;;;9.89;90.85
40872;BME280;26591;43.264;26.940;2023-05-03T01:17:11;99621.84;;;9.87;91.33
40872;BME280;26591;43.264;26.940;2023-05-03T01:19:43;99616.66;;;9.95;90.88
40872;BME280;26591;43.264;26.940;2023-05-03T01:22:37;99609.22;;;10.27;89.96
40872;BME280;26591;43.264;26.940;2023-05-03T01:25:10;99612.72;;;9.99;91.09
40872;BME280;26591;43.264;26.940;2023-05-03T01:27:36;99607.13;;;9.84;91.74
40872;BME280;26591;43.264;26.940;2023-05-03T01:30:09;99609.13;;;10.18;91.38
40872;BME280;26591;43.264;26.940;2023-05-03T01:35:39;99610.88;;;9.54;91.90
40872;BME280;26591;43.264;26.940;2023-05-03T01:38:08;99618.59;;;9.27;94.25
40872;BME280;26591;43.264;26.940;2023-05-03T01:40:41;99622.06;;;9.75;92.96
40872;BME280;26591;43.264;26.940;2023-05-03T01:43:10;99630.22;;;9.82;92.12
40872;BME280;26591;43.264;26.940;2023-05-03T01:45:36;99620.34;;;9.84;91.59
40872;BME280;26591;43.264;26.940;2023-05-03T01:48:07;99625.75;;;9.83;91.92
40872;BME280;26591;43.264;26.940;2023-05-03T01:50:32;99617.53;;;9.86;91.13
40872;BME280;26591;43.264;26.940;2023-05-03T01:52:58;99615.47;;;10.07;90.57
40872;BME280;26591;43.264;26.940;2023-05-03T01:55:23;99623.31;;;9.99;90.64
40872;BME280;26591;43.264;26.940;2023-05-03T01:57:49;99621.50;;;10.00;90.29
40872;BME280;26591;43.264;26.940;2023-05-03T02:00:14;99622.59;;;9.79;91.40
40872;BME280;26591;43.264;26.940;2023-05-03T02:02:40;99617.63;;;9.94;91.13
40872;BME280;26591;43.264;26.940;2023-05-03T02:05:06;99619.16;;;9.69;91.90
40872;BME280;26591;43.264;26.940;2023-05-03T02:07:31;99623.28;;;9.81;92.17
40872;BME280;26591;43.264;26.940;2023-05-03T02:09:57;99627.97;;;9.87;92.01
40872;BME280;26591;43.264;26.940;2023-05-03T02:12:22;99624.44;;;9.97;91.05
40872;BME280;26591;43.264;26.940;2023-05-03T02:14:48;99628.84;;;10.06;90.63
40872;BME280;26591;43.264;26.940;2023-05-03T02:17:13;99617.72;;;10.02;90.99
40872;BME280;26591;43.264;26.940;2023-05-03T02:19:41;99619.09;;;9.78;90.77
40872;BME280;26591;43.264;26.940;2023-05-03T02:22:07;99623.81;;;9.85;91.10
40872;BME280;26591;43.264;26.940;2023-05-03T02:24:35;99614.50;;;9.81;91.10
40872;BME280;26591;43.264;26.940;2023-05-03T02:27:02;99610.53;;;9.67;92.21
40872;BME280;26591;43.264;26.940;2023-05-03T02:29:31;99610.13;;;9.61;92.35
40872;BME280;26591;43.264;26.940;2023-05-03T02:31:56;99601.75;;;9.66;92.44
40872;BME280;26591;43.264;26.940;2023-05-03T02:34:22;99600.34;;;9.44;93.16
40872;BME280;26591;43.264;26.940;2023-05-03T02:36:48;99602.69;;;9.75;92.71
40872;BME280;26591;43.264;26.940;2023-05-03T02:39:13;99611.56;;;9.84;92.62
40872;BME280;26591;43.264;26.940;2023-05-03T02:41:38;99615.53;;;9.98;92.39
40872;BME280;26591;43.264;26.940;2023-05-03T02:44:04;99601.25;;;10.08;91.21
40872;BME280;26591;43.264;26.940;2023-05-03T02:46:29;99597.78;;;10.08;90.34
40872;BME280;26591;43.264;26.940;2023-05-03T02:48:55;99599.22;;;10.02;90.77
40872;BME280;26591;43.264;26.940;2023-05-03T02:51:20;99603.72;;;10.20;90.41
40872;BME280;26591;43.264;26.940;2023-05-03T02:53:46;99604.63;;;10.29;89.26
40872;BME280;26591;43.264;26.940;2023-05-03T02:56:12;99604.63;;;10.29;89.37
40872;BME280;26591;43.264;26.940;2023-05-03T02:58:37;99604.97;;;9.98;89.58
40872;BME280;26591;43.264;26.940;2023-05-03T03:01:03;99612.28;;;10.04;89.13
40872;BME280;26591;43.264;26.940;2023-05-03T03:03:28;99607.63;;;10.16;89.38
40872;BME280;26591;43.264;26.940;2023-05-03T03:05:54;99605.72;;;10.08;89.43
40872;BME280;26591;43.264;26.940;2023-05-03T03:08:19;99609.00;;;10.20;88.86
40872;BME280;26591;43.264;26.940;2023-05-03T03:10:45;99607.22;;;10.11;89.50
40872;BME280;26591;43.264;26.940;2023-05-03T03:13:13;99600.06;;;9.75;90.40
40872;BME280;26591;43.264;26.940;2023-05-03T03:15:39;99608.88;;;9.93;90.46
40872;BME280;26591;43.264;26.940;2023-05-03T03:18:04;99606.66;;;10.35;90.04
40872;BME280;26591;43.264;26.940;2023-05-03T03:20:30;99611.91;;;10.63;89.35
40872;BME280;26591;43.264;26.940;2023-05-03T03:22:55;99612.31;;;10.94;88.74
40872;BME280;26591;43.264;26.940;2023-05-03T03:25:21;99613.56;;;11.08;87.63
40872;BME280;26591;43.264;26.940;2023-05-03T03:27:46;99609.88;;;10.57;86.58
40872;BME280;26591;43.264;26.940;2023-05-03T03:30:12;99615.22;;;10.65;86.68
40872;BME280;26591;43.264;26.940;2023-05-03T03:32:38;99613.13;;;10.50;87.04
40872;BME280;26591;43.264;26.940;2023-05-03T03:35:04;99612.13;;;10.88;86.30
40872;BME280;26591;43.264;26.940;2023-05-03T03:37:29;99611.22;;;10.79;85.14
40872;BME280;26591;43.264;26.940;2023-05-03T03:39:55;99620.06;;;10.69;85.73
40872;BME280;26591;43.264;26.940;2023-05-03T03:42:21;99620.53;;;10.65;85.44
40872;BME280;26591;43.264;26.940;2023-05-03T03:44:48;99624.75;;;10.40;85.69
40872;BME280;26591;43.264;26.940;2023-05-03T03:47:14;99641.84;;;10.45;85.46
40872;BME280;26591;43.264;26.940;2023-05-03T03:49:39;99640.06;;;10.18;86.41
40872;BME280;26591;43.264;26.940;2023-05-03T03:52:05;99646.63;;;9.86;88.29
40872;BME280;26591;43.264;26.940;2023-05-03T03:54:31;99647.75;;;9.45;90.35
40872;BME280;26591;43.264;26.940;2023-05-03T03:56:57;99648.22;;;9.31;91.88
40872;BME280;26591;43.264;26.940;2023-05-03T03:59:22;99642.56;;;9.54;91.54
40872;BME280;26591;43.264;26.940;2023-05-03T04:01:48;99643.13;;;9.85;91.22
40872;BME280;26591;43.264;26.940;2023-05-03T04:04:13;99657.00;;;9.97;91.07
40872;BME280;26591;43.264;26.940;2023-05-03T04:06:39;99652.69;;;9.96;91.15
40872;BME280;26591;43.264;26.940;2023-05-03T04:09:05;99655.03;;;9.99;90.72
40872;BME280;26591;43.264;26.940;2023-05-03T04:11:30;99658.75;;;10.34;89.84
40872;BME280;26591;43.264;26.940;2023-05-03T04:13:56;99650.28;;;10.03;89.61
40872;BME280;26591;43.264;26.940;2023-05-03T04:16:21;99657.94;;;10.06;89.69
40872;BME280;26591;43.264;26.940;2023-05-03T04:18:49;99656.91;;;10.17;89.29
40872;BME280;26591;43.264;26.940;2023-05-03T04:21:15;99661.00;;;10.29;88.32
40872;BME280;26591;43.264;26.940;2023-05-03T04:23:40;99669.84;;;10.66;87.30
40872;BME280;26591;43.264;26.940;2023-05-03T04:26:06;99668.78;;;10.31;88.15
40872;BME280;26591;43.264;26.940;2023-05-03T04:28:32;99660.75;;;10.50;87.24
40872;BME280;26591;43.264;26.940;2023-05-03T04:30:58;99665.50;;;10.83;87.54
40872;BME280;26591;43.264;26.940;2023-05-03T04:33:24;99662.59;;;11.12;86.11
40872;BME280;26591;43.264;26.940;2023-05-03T04:35:51;99661.09;;;11.10;83.89
40872;BME280;26591;43.264;26.940;2023-05-03T04:38:17;99660.53;;;10.80;84.56
40872;BME280;26591;43.264;26.940;2023-05-03T04:40:43;99664.53;;;10.84;84.51
40872;BME280;26591;43.264;26.940;2023-05-03T04:43:09;99660.31;;;10.73;85.09
40872;BME280;26591;43.264;26.940;2023-05-03T04:45:36;99668.03;;;11.29;84.35
40872;BME280;26591;43.264;26.940;2023-05-03T04:48:02;99668.78;;;11.48;83.14
40872;BME280;26591;43.264;26.940;2023-05-03T04:50:30;99675.53;;;11.42;81.15
40872;BME280;26591;43.264;26.940;2023-05-03T04:52:55;99664.25;;;10.69;83.62
40872;BME280;26591;43.264;26.940;2023-05-03T04:55:21;99672.59;;;11.01;83.70
40872;BME280;26591;43.264;26.940;2023-05-03T04:57:46;99664.81;;;10.81;83.98
40872;BME280;26591;43.264;26.940;2023-05-03T05:00:15;99658.09;;;10.50;85.06
40872;BME280;26591;43.264;26.940;2023-05-03T05:02:41;99665.44;;;10.75;85.00
40872;BME280;26591;43.264;26.940;2023-05-03T05:05:06;99663.16;;;10.98;84.06
40872;BME280;26591;43.264;26.940;2023-05-03T05:07:33;99662.69;;;11.55;82.64
40872;BME280;26591;43.264;26.940;2023-05-03T05:10:01;99665.81;;;11.77;81.74
40872;BME280;26591;43.264;26.940;2023-05-03T05:12:27;99666.84;;;12.27;80.97
40872;BME280;26591;43.264;26.940;2023-05-03T05:14:53;99675.22;;;12.49;79.63
40872;BME280;26591;43.264;26.940;2023-05-03T05:17:18;99663.97;;;12.72;78.38
40872;BME280;26591;43.264;26.940;2023-05-03T05:19:45;99672.19;;;12.35;77.96
40872;BME280;26591;43.264;26.940;2023-05-03T05:22:11;99664.06;;;12.37;77.85
40872;BME280;26591;43.264;26.940;2023-05-03T05:24:36;99671.81;;;11.87;80.04
40872;BME280;26591;43.264;26.940;2023-05-03T05:27:02;99672.28;;;12.77;78.25
40872;BME280;26591;43.264;26.940;2023-05-03T05:29:28;99677.22;;;13.30;76.60
40872;BME280;26591;43.264;26.940;2023-05-03T05:31:54;99674.50;;;13.71;73.61
40872;BME280;26591;43.264;26.940;2023-05-03T05:34:19;99676.06;;;14.68;71.20
40872;BME280;26591;43.264;26.940;2023-05-03T05:36:45;99674.31;;;14.84;69.62
40872;BME280;26591;43.264;26.940;2023-05-03T05:39:10;99673.22;;;14.93;69.15
40872;BME280;26591;43.264;26.940;2023-05-03T05:41:36;99682.81;;;15.40;67.89
40872;BME280;26591;43.264;26.940;2023-05-03T05:44:20;99686.97;;;14.82;68.99
40872;BME280;26591;43.264;26.940;2023-05-03T05:46:51;99688.63;;;15.74;67.42
40872;BME280;26591;43.264;26.940;2023-05-03T05:49:16;99696.44;;;16.06;64.29
40872;BME280;26591;43.264;26.940;2023-05-03T05:51:42;99697.31;;;16.43;63.14
40872;BME280;26591;43.264;26.940;2023-05-03T05:54:07;99698.44;;;16.33;61.72
40872;BME280;26591;43.264;26.940;2023-05-03T05:56:32;99693.00;;;14.44;66.30
40872;BME280;26591;43.264;26.940;2023-05-03T05:58:58;99700.28;;;13.70;68.94
40872;BME280;26591;43.264;26.940;2023-05-03T06:01:25;99692.28;;;13.79;69.63
40872;BME280;26591;43.264;26.940;2023-05-03T06:03:51;99700.50;;;13.19;71.87
40872;BME280;26591;43.264;26.940;2023-05-03T06:06:16;99686.38;;;12.77;74.40
40872;BME280;26591;43.264;26.940;2023-05-03T06:08:42;99691.50;;;12.95;75.70
40872;BME280;26591;43.264;26.940;2023-05-03T06:11:07;99678.06;;;12.64;72.08
40872;BME280;26591;43.264;26.940;2023-05-03T06:13:33;99687.69;;;12.65;72.74
40872;BME280;26591;43.264;26.940;2023-05-03T06:16:02;99676.75;;;12.76;72.69
40872;BME280;26591;43.264;26.940;2023-05-03T06:18:28;99674.91;;;12.85;72.28
40872;BME280;26591;43.264;26.940;2023-05-03T06:20:53;99668.78;;;12.68;73.08
40872;BME280;26591;43.264;26.940;2023-05-03T06:23:19;99672.59;;;12.74;72.26
40872;BME280;26591;43.264;26.940;2023-05-03T06:25:45;99661.63;;;13.35;71.53
40872;BME280;26591;43.264;26.940;2023-05-03T06:28:11;99661.47;;;13.28;70.21
40872;BME280;26591;43.264;26.940;2023-05-03T06:30:37;99656.50;;;13.08;70.77
40872;BME280;26591;43.264;26.940;2023-05-03T06:33:02;99658.00;;;13.03;70.61
40872;BME280;26591;43.264;26.940;2023-05-03T06:35:28;99670.59;;;12.76;71.34
40872;BME280;26591;43.264;26.940;2023-05-03T06:37:53;99674.94;;;13.02;71.30
40872;BME280;26591;43.264;26.940;2023-05-03T06:40:19;99676.94;;;13.08;71.18
40872;BME280;26591;43.264;26.940;2023-05-03T06:42:46;99686.66;;;12.58;71.02
40872;BME280;26591;43.264;26.940;2023-05-03T06:45:12;99695.69;;;12.81;72.05
40872;BME280;26591;43.264;26.940;2023-05-03T06:47:37;99710.78;;;13.14;70.44
40872;BME280;26591;43.264;26.940;2023-05-03T06:50:07;99712.13;;;13.51;69.48
40872;BME280;26591;43.264;26.940;2023-05-03T06:52:33;99707.63;;;13.35;71.38
40872;BME280;26591;43.264;26.940;2023-05-03T06:54:58;99713.44;;;13.39;70.68
40872;BME280;26591;43.264;26.940;2023-05-03T06:57:24;99725.38;;;12.85;70.20
40872;BME280;26591;43.264;26.940;2023-05-03T06:59:49;99722.41;;;13.30;71.09
40872;BME280;26591;43.264;26.940;2023-05-03T07:02:16;99719.44;;;13.66;71.10
40872;BME280;26591;43.264;26.940;2023-05-03T07:04:42;99724.94;;;13.56;70.77
40872;BME280;26591;43.264;26.940;2023-05-03T07:07:07;99727.88;;;13.69;70.81
40872;BME280;26591;43.264;26.940;2023-05-03T07:09:33;99734.66;;;13.97;68.75
40872;BME280;26591;43.264;26.940;2023-05-03T07:11:58;99720.31;;;14.06;68.11
40872;BME280;26591;43.264;26.940;2023-05-03T07:14:25;99720.31;;;14.06;67.31
40872;BME280;26591;43.264;26.940;2023-05-03T07:16:51;99726.63;;;14.05;68.83
40872;BME280;26591;43.264;26.940;2023-05-03T07:19:17;99732.47;;;13.92;69.10
40872;BME280;26591;43.264;26.940;2023-05-03T07:21:42;99745.81;;;14.32;68.41
40872;BME280;26591;43.264;26.940;2023-05-03T07:24:09;99735.78;;;14.02;68.55
40872;BME280;26591;43.264;26.940;2023-05-03T07:26:37;99731.56;;;14.25;66.91
40872;BME280;26591;43.264;26.940;2023-05-03T07:29:02;99729.03;;;14.31;67.41
40872;BME280;26591;43.264;26.940;2023-05-03T07:31:28;99728.25;;;14.14;67.93
40872;BME280;26591;43.264;26.940;2023-05-03T07:33:55;99727.66;;;13.87;69.09
40872;BME280;26591;43.264;26.940;2023-05-03T07:36:26;99725.25;;;14.49;67.10
40872;BME280;26591;43.264;26.940;2023-05-03T07:38:51;99735.63;;;14.44;68.09
40872;BME280;26591;43.264;26.940;2023-05-03T07:41:17;99742.00;;;14.66;65.14
40872;BME280;26591;43.264;26.940;2023-05-03T07:43:43;99751.06;;;15.12;64.71
40872;BME280;26591;43.264;26.940;2023-05-03T07:46:08;99748.75;;;15.08;63.26
40872;BME280;26591;43.264;26.940;2023-05-03T07:48:34;99744.63;;;14.98;62.54
40872;BME280;26591;43.264;26.940;2023-05-03T07:51:03;99748.06;;;15.30;62.65
40872;BME280;26591;43.264;26.940;2023-05-03T07:53:29;99746.16;;;15.38;61.98
40872;BME280;26591;43.264;26.940;2023-05-03T07:56:03;99755.19;;;15.91;60.01
40872;BME280;26591;43.264;26.940;2023-05-03T07:58:30;99748.84;;;16.07;57.89
40872;BME280;26591;43.264;26.940;2023-05-03T08:00:55;99756.56;;;16.31;58.22
40872;BME280;26591;43.264;26.940;2023-05-03T08:03:21;99759.06;;;16.03;56.17
40872;BME280;26591;43.264;26.940;2023-05-03T08:05:46;99762.91;;;15.85;58.89
40872;BME280;26591;43.264;26.940;2023-05-03T08:08:12;99751.25;;;16.01;56.32
40872;BME280;26591;43.264;26.940;2023-05-03T08:10:38;99749.94;;;15.97;56.08
40872;BME280;26591;43.264;26.940;2023-05-03T08:13:04;99750.59;;;16.29;54.66
40872;BME280;26591;43.264;26.940;2023-05-03T08:15:32;99742.03;;;16.56;56.56
40872;BME280;26591;43.264;26.940;2023-05-03T08:17:58;99743.94;;;16.10;56.53
40872;BME280;26591;43.264;26.940;2023-05-03T08:20:24;99734.50;;;15.54;55.02
40872;BME280;26591;43.264;26.940;2023-05-03T08:22:51;99723.06;;;15.99;53.95
40872;BME280;26591;43.264;26.940;2023-05-03T08:25:55;99736.56;;;15.82;55.77
40872;BME280;26591;43.264;26.940;2023-05-03T08:28:20;99733.38;;;16.02;52.39
40872;BME280;26591;43.264;26.940;2023-05-03T08:30:46;99733.72;;;16.29;51.92
40872;BME280;26591;43.264;26.940;2023-05-03T08:33:11;99732.72;;;16.67;52.21
40872;BME280;26591;43.264;26.940;2023-05-03T08:35:37;99732.16;;;16.71;51.88
40872;BME280;26591;43.264;26.940;2023-05-03T08:38:02;99738.63;;;16.99;53.27
40872;BME280;26591;43.264;26.940;2023-05-03T08:40:29;99733.84;;;16.94;52.21
40872;BME280;26591;43.264;26.940;2023-05-03T08:42:58;99739.41;;;17.43;54.52
40872;BME280;26591;43.264;26.940;2023-05-03T08:45:31;99725.66;;;18.09;49.44
40872;BME280;26591;43.264;26.940;2023-05-03T08:47:57;99722.81;;;18.18;48.03
40872;BME280;26591;43.264;26.940;2023-05-03T08:50:23;99729.66;;;17.57;46.79
40872;BME280;26591;43.264;26.940;2023-05-03T08:52:49;99706.09;;;17.80;47.62
40872;BME280;26591;43.264;26.940;2023-05-03T08:55:15;99691.94;;;17.51;46.25
40872;BME280;26591;43.264;26.940;2023-05-03T08:57:41;99714.56;;;17.49;47.20
40872;BME280;26591;43.264;26.940;2023-05-03T09:00:06;99701.91;;;17.64;47.36
40872;BME280;26591;43.264;26.940;2023-05-03T09:02:36;99704.13;;;17.96;46.68
40872;BME280;26591;43.264;26.940;2023-05-03T09:10:25;99703.59;;;18.01;50.42
40872;BME280;26591;43.264;26.940;2023-05-03T09:12:57;99703.59;;;17.72;50.62
40872;BME280;26591;43.264;26.940;2023-05-03T09:15:23;99699.81;;;17.60;51.68
40872;BME280;26591;43.264;26.940;2023-05-03T09:18:12;99700.56;;;17.47;50.17
40872;BME280;26591;43.264;26.940;2023-05-03T09:20:39;99695.94;;;17.34;51.60
40872;BME280;26591;43.264;26.940;2023-05-03T09:23:08;99692.53;;;17.47;52.19
40872;BME280;26591;43.264;26.940;2023-05-03T09:28:08;99686.38;;;17.88;50.52
40872;BME280;26591;43.264;26.940;2023-05-03T09:30:34;99686.00;;;17.91;51.56
40872;BME280;26591;43.264;26.940;2023-05-03T09:32:59;99693.06;;;17.99;51.83
40872;BME280;26591;43.264;26.940;2023-05-03T09:35:25;99692.81;;;18.42;48.57
40872;BME280;26591;43.264;26.940;2023-05-03T09:37:50;99697.56;;;18.40;50.00
40872;BME280;26591;43.264;26.940;2023-05-03T09:40:16;99676.53;;;17.95;49.71
40872;BME280;26591;43.264;26.940;2023-05-03T09:43:06;99684.31;;;18.19;50.91
40872;BME280;26591;43.264;26.940;2023-05-03T09:45:36;99683.44;;;18.11;50.55
40872;BME280;26591;43.264;26.940;2023-05-03T09:48:03;99676.25;;;18.12;49.43
40872;BME280;26591;43.264;26.940;2023-05-03T09:50:34;99664.41;;;18.55;48.23
40872;BME280;26591;43.264;26.940;2023-05-03T09:53:02;99656.31;;;18.41;46.49
40872;BME280;26591;43.264;26.940;2023-05-03T09:55:31;99655.16;;;18.78;46.36
40872;BME280;26591;43.264;26.940;2023-05-03T09:57:58;99648.19;;;19.10;46.62
40872;BME280;26591;43.264;26.940;2023-05-03T10:00:25;99672.75;;;19.07;45.54
40872;BME280;26591;43.264;26.940;2023-05-03T10:02:53;99656.31;;;18.35;45.97
40872;BME280;26591;43.264;26.940;2023-05-03T10:05:22;99634.34;;;18.80;46.34
40872;BME280;26591;43.264;26.940;2023-05-03T10:07:53;99648.59;;;19.14;44.83
40872;BME280;26591;43.264;26.940;2023-05-03T10:10:22;99628.59;;;19.10;44.84
40872;BME280;26591;43.264;26.940;2023-05-03T10:12:48;99629.28;;;19.77;44.74
40872;BME280;26591;43.264;26.940;2023-05-03T10:15:19;99647.94;;;19.45;41.75
40872;BME280;26591;43.264;26.940;2023-05-03T10:17:48;99616.38;;;19.41;42.13
40872;BME280;26591;43.264;26.940;2023-05-03T10:20:35;99618.19;;;19.54;42.22
40872;BME280;26591;43.264;26.940;2023-05-03T10:25:30;99628.63;;;19.82;43.23
40872;BME280;26591;43.264;26.940;2023-05-03T10:30:30;99620.09;;;20.05;41.24
40872;BME280;26591;43.264;26.940;2023-05-03T10:32:58;99624.69;;;19.85;41.65
40872;BME280;26591;43.264;26.940;2023-05-03T10:35:27;99611.53;;;19.70;42.13
40872;BME280;26591;43.264;26.940;2023-05-03T10:37:54;99618.47;;;19.18;41.20
40872;BME280;26591;43.264;26.940;2023-05-03T10:40:21;99616.63;;;19.12;41.02
40872;BME280;26591;43.264;26.940;2023-05-03T10:42:53;99617.66;;;19.04;41.54
40872;BME280;26591;43.264;26.940;2023-05-03T10:45:26;99606.91;;;18.78;42.02
40872;BME280;26591;43.264;26.940;2023-05-03T10:50:40;99605.03;;;18.85;43.13
40872;BME280;26591;43.264;26.940;2023-05-03T10:53:06;99598.25;;;19.09;43.55
40872;BME280;26591;43.264;26.940;2023-05-03T10:55:32;99592.88;;;19.09;43.86
40872;BME280;26591;43.264;26.940;2023-05-03T10:57:59;99597.63;;;19.07;42.62
40872;BME280;26591;43.264;26.940;2023-05-03T11:03:08;99603.84;;;19.01;43.01
40872;BME280;26591;43.264;26.940;2023-05-03T11:05:35;99598.47;;;18.94;42.43
40872;BME280;26591;43.264;26.940;2023-05-03T11:10:38;99602.78;;;19.15;41.01
40872;BME280;26591;43.264;26.940;2023-05-03T11:13:04;99607.13;;;19.23;41.26
40872;BME280;26591;43.264;26.940;2023-05-03T11:15:31;99601.13;;;18.81;41.18
40872;BME280;26591;43.264;26.940;2023-05-03T11:17:56;99593.91;;;18.68;42.46
40872;BME280;26591;43.264;26.940;2023-05-03T11:20:22;99610.22;;;19.06;39.88
40872;BME280;26591;43.264;26.940;2023-05-03T11:22:48;99586.50;;;18.83;40.69
40872;BME280;26591;43.264;26.940;2023-05-03T11:25:13;99593.50;;;18.91;39.85
40872;BME280;26591;43.264;26.940;2023-05-03T11:27:41;99601.13;;;18.67;39.87
40872;BME280;26591;43.264;26.940;2023-05-03T11:30:08;99603.81;;;18.74;40.39
40872;BME280;26591;43.264;26.940;2023-05-03T11:32:35;99610.44;;;18.98;39.38
40872;BME280;26591;43.264;26.940;2023-05-03T11:35:01;99613.28;;;19.24;39.54
40872;BME280;26591;43.264;26.940;2023-05-03T11:37:30;99598.69;;;19.85;38.44
40872;BME280;26591;43.264;26.940;2023-05-03T11:39:56;99608.03;;;20.21;37.56
40872;BME280;26591;43.264;26.940;2023-05-03T11:42:22;99595.09;;;20.37;36.72
40872;BME280;26591;43.264;26.940;2023-05-03T11:44:54;99588.78;;;20.56;36.30
40872;BME280;26591;43.264;26.940;2023-05-03T11:47:20;99600.91;;;20.66;35.46
40872;BME280;26591;43.264;26.940;2023-05-03T11:49:53;99598.31;;;20.52;35.61
40872;BME280;26591;43.264;26.940;2023-05-03T11:52:22;99590.81;;;19.83;36.65
40872;BME280;26591;43.264;26.940;2023-05-03T11:54:49;99583.59;;;19.25;36.84
40872;BME280;26591;43.264;26.940;2023-05-03T11:57:15;99591.22;;;19.15;37.00
40872;BME280;26591;43.264;26.940;2023-05-03T11:59:41;99586.28;;;19.18;37.22
40872;BME280;26591;43.264;26.940;2023-05-03T12:02:09;99611.25;;;18.85;36.27
40872;BME280;26591;43.264;26.940;2023-05-03T12:04:36;99582.56;;;18.59;36.99
40872;BME280;26591;43.264;26.940;2023-05-03T12:07:06;99591.00;;;18.83;37.53
40872;BME280;26591;43.264;26.940;2023-05-03T12:09:33;99606.69;;;18.86;37.52
40872;BME280;26591;43.264;26.940;2023-05-03T12:11:59;99624.41;;;18.47;37.12
40872;BME280;26591;43.264;26.940;2023-05-03T12:14:25;99596.09;;;18.24;37.83
40872;BME280;26591;43.264;26.940;2023-05-03T12:16:51;99597.19;;;18.36;36.63
40872;BME280;26591;43.264;26.940;2023-05-03T12:19:28;99604.97;;;18.24;35.66
40872;BME280;26591;43.264;26.940;2023-05-03T12:21:55;99591.19;;;18.34;37.28
40872;BME280;26591;43.264;26.940;2023-05-03T12:24:21;99592.25;;;18.53;35.78
40872;BME280;26591;43.264;26.940;2023-05-03T12:26:50;99588.75;;;18.66;34.38
40872;BME280;26591;43.264;26.940;2023-05-03T12:29:16;99596.16;;;18.30;32.65
40872;BME280;26591;43.264;26.940;2023-05-03T12:31:42;99601.91;;;18.34;34.55
40872;BME280;26591;43.264;26.940;2023-05-03T12:34:08;99601.31;;;18.45;35.02
40872;BME280;26591;43.264;26.940;2023-05-03T12:36:34;99587.66;;;18.27;35.72
40872;BME280;26591;43.264;26.940;2023-05-03T12:39:00;99592.97;;;18.00;36.64
40872;BME280;26591;43.264;26.940;2023-05-03T12:41:29;99586.53;;;17.94;37.61
40872;BME280;26591;43.264;26.940;2023-05-03T12:43:59;99578.88;;;17.91;36.53
40872;BME280;26591;43.264;26.940;2023-05-03T12:46:28;99576.41;;;17.83;36.32
40872;BME280;26591;43.264;26.940;2023-05-03T12:48:53;99580.72;;;17.77;35.88
40872;BME280;26591;43.264;26.940;2023-05-03T12:51:19;99582.63;;;17.97;36.44
40872;BME280;26591;43.264;26.940;2023-05-03T12:53:45;99580.63;;;18.06;36.53
40872;BME280;26591;43.264;26.940;2023-05-03T12:56:12;99582.25;;;18.00;38.93
40872;BME280;26591;43.264;26.940;2023-05-03T12:58:38;99583.03;;;17.94;38.16
40872;BME280;26591;43.264;26.940;2023-05-03T13:01:04;99578.59;;;17.66;39.22
40872;BME280;26591;43.264;26.940;2023-05-03T13:03:29;99570.69;;;17.51;40.56
40872;BME280;26591;43.264;26.940;2023-05-03T13:05:56;99587.63;;;17.65;39.51
40872;BME280;26591;43.264;26.940;2023-05-03T13:08:21;99569.47;;;17.53;39.61
40872;BME280;26591;43.264;26.940;2023-05-03T13:10:48;99574.72;;;17.75;39.28
40872;BME280;26591;43.264;26.940;2023-05-03T13:13:13;99563.97;;;17.62;38.01
40872;BME280;26591;43.264;26.940;2023-05-03T13:15:39;99574.19;;;17.51;38.91
40872;BME280;26591;43.264;26.940;2023-05-03T13:18:06;99565.81;;;17.19;39.43
40872;BME280;26591;43.264;26.940;2023-05-03T13:20:34;99557.94;;;17.46;39.70